TQPFTNCM

Guest
Details From TQPF - Anguilla/Wallblake
To TNCM - St Maarten - Princess Juliana Intl
Flight Number -
Tags generated
Created
Modified
Stats Distance 11 nm / 21 km
Max Altitude 100 ft / 30 m
Waypoints 3
Social Downloads 7
Likes 0
Share VATSIM

Download

Looking for another format? Having issues loading an existing format? Contact us
Advertisement - Login to hide

Notes

Basic altitude profile: - Ascent Rate: 2500ft/min - Ascent Speed: 250kts - Cruise Altitude: 35000ft - Cruise Speed: 420kts - Descent Rate: 1500ft/min - Descent Speed: 250kts Options: - Use NATs: yes - Use PACOTS: yes - Use low airways: yes - Use high airways: yes

Route

TQPF PJM TNCM

ID Type Via Altitude Latitude Longitude Leg Dist Tot Dist Heading (true) Name
O TQPF APT - 0 ft / 0 m 18.20480˚ -63.05386˚ - 0 nm - Anguilla/Wallblake
PJM VOR - 100 ft / 30 m 18.03811˚ -63.11828˚ 10 nm 10 nm 200° / 200° ST MAARTEN VOR-DME
O TNCM APT - 0 ft / 0 m 18.04089˚ -63.10897˚ 0 nm 11 nm 73° / 73° St Maarten - Princess Juliana Intl

Altitude Profile

Advertisement - Login to hide

TQPF

Details ICAO TQPF (AXA)
Name Anguilla/Wallblake
Region UK (Anguilla)
Timezone America/Anguilla (UTC-4.0)
Stats Elevation 127 ft / 39 m (AMSL)
Location 18.204798° -63.053855°
Runways 1
Magnetic Variation 14.348° W

METAR

Not found

TAF

TAF TQPF 171700Z 1718/1818 09010KT 9999 SCT020

Decode

Departure Runways

ID Width Length Bearing (true) Bearing (mag) Surface Threshold Offset Overrun Length
10 98 ft / 30 m 5,454 ft / 1,662 m 90.65° 105.00° Asphalt 492 ft / 150 m 0 ft / 0 m
28 98 ft / 30 m 5,454 ft / 1,662 m 270.65° 285.00° Asphalt 492 ft / 150 m 0 ft / 0 m

TNCM

Details ICAO TNCM (SXM)
Name St Maarten - Princess Juliana Intl
Region Caribbean Netherlands, Aruba, Curaçao, Sint Maarten
Timezone Unknown (UTC+0.0)
Stats Elevation 12 ft / 4 m (AMSL)
Location 18.040889° -63.108974°
Runways 1
Magnetic Variation 14.325° W

METAR

TNCM 180100Z 07012KT 9999 -SHRA SCT020 26/22 Q1017 A3005

Decode

TAF

TAF TNCM 172323Z 1800/1824 04012KT P6SM VCSH FEW018 SCT035 TEMPO 1800/1804 VRB12G20KT -SHRA BKN018 BKN035 FM180500 07011KT P6SM -RA SCT018 SCT040 FM181430 08014KT P6SM SCT022 SCT060

Decode

Destination Runways

ID Width Length Bearing (true) Bearing (mag) Surface Threshold Offset Overrun Length
10 148 ft / 45 m 7,464 ft / 2,275 m 81.43° 95.76° Asphalt 0 ft / 0 m 151 ft / 46 m
28 148 ft / 45 m 7,464 ft / 2,275 m 261.44° 275.77° Asphalt 397 ft / 121 m 0 ft / 0 m

Popular Alternatives